www.cux-wetter.de
Wetterdaten: Woche 12.03.07 - 18.03.07 (KW11)
Datum Zeit Temp. A. Feuchte A. Luftdruck Regen Wind Richtung Sonnenschein Solar Taupunkt Windchill Windben
12.03.2007 00:00 7,3 C 90 % 1027,8 hPa 0,0 l/m 12,8 km/h (3 Bft) W-SW 0,00 h 0 W/m 5,7 C 3,0 C 12,8 km/h (3 Bft)
12.03.2007 01:00 6,8 C 90 % 1027,5 hPa 0,0 l/m 11,4 km/h (2 Bft) SW 0,00 h 0 W/m 5,3 C 3,3 C 11,4 km/h (2 Bft)
12.03.2007 02:00 6,2 C 92 % 1027,5 hPa 0,0 l/m 12,0 km/h (2 Bft) SW 0,00 h 0 W/m 5,0 C 2,2 C 12,0 km/h (2 Bft)
12.03.2007 03:00 6,7 C 92 % 1027,5 hPa 0,0 l/m 15,9 km/h (3 Bft) SW 0,00 h 0 W/m 5,4 C 0,7 C 15,9 km/h (3 Bft)
12.03.2007 04:00 6,4 C 91 % 1026,5 hPa 0,0 l/m 12,9 km/h (3 Bft) SW 0,00 h 0 W/m 5,0 C 1,9 C 12,9 km/h (3 Bft)
12.03.2007 05:00 5,9 C 91 % 1026,5 hPa 0,0 l/m 13,8 km/h (3 Bft) SW 0,00 h 0 W/m 4,5 C 0,9 C 13,8 km/h (3 Bft)
12.03.2007 06:00 6,0 C 91 % 1026,5 hPa 0,0 l/m 11,2 km/h (2 Bft) SW 0,00 h 0 W/m 4,6 C 2,4 C 11,2 km/h (2 Bft)
12.03.2007 07:00 7,1 C 86 % 1026,5 hPa 0,0 l/m 15,9 km/h (3 Bft) W-SW 0,00 h 0 W/m 5,0 C 1,4 C 15,9 km/h (3 Bft)
12.03.2007 08:00 8,9 C 78 % 1026,5 hPa 0,0 l/m 19,3 km/h (3 Bft) SW 0,00 h 0 W/m 5,3 C 2,1 C 19,3 km/h (3 Bft)
12.03.2007 09:00 11,0 C 71 % 1026,8 hPa 0,0 l/m 19,8 km/h (3 Bft) W-SW 0,00 h 0 W/m 5,8 C 4,7 C 19,8 km/h (3 Bft)
12.03.2007 10:00 13,2 C 63 % 1026,5 hPa 0,0 l/m 24,0 km/h (4 Bft) W-SW 0,00 h 0 W/m 6,3 C 6,4 C 24,0 km/h (4 Bft)
12.03.2007 11:00 14,5 C 56 % 1026,5 hPa 0,0 l/m 25,3 km/h (4 Bft) W-SW 0,00 h 0 W/m 5,8 C 7,9 C 25,3 km/h (4 Bft)
12.03.2007 12:00 15,4 C 56 % 1026,5 hPa 0,0 l/m 21,9 km/h (4 Bft) W-SW 0,00 h 0 W/m 6,6 C 9,9 C 21,9 km/h (4 Bft)
12.03.2007 13:00 15,6 C 58 % 1026,3 hPa 0,0 l/m 19,8 km/h (3 Bft) W-SW 0,00 h 0 W/m 7,2 C 10,5 C 19,8 km/h (3 Bft)
12.03.2007 14:00 15,8 C 57 % 1025,5 hPa 0,0 l/m 19,1 km/h (3 Bft) W-SW 0,00 h 0 W/m 7,4 C 11,0 C 19,1 km/h (3 Bft)
12.03.2007 15:00 15,4 C 54 % 1025,5 hPa 0,0 l/m 17,6 km/h (3 Bft) W-SW 0,00 h 0 W/m 6,0 C 10,9 C 17,6 km/h (3 Bft)
12.03.2007 16:00 14,9 C 56 % 1024,5 hPa 0,0 l/m 14,5 km/h (3 Bft) W-SW 0,00 h 0 W/m 6,1 C 11,2 C 14,5 km/h (3 Bft)
12.03.2007 17:00 13,6 C 60 % 1024,5 hPa 0,0 l/m 9,1 km/h (2 Bft) W-SW 0,00 h 0 W/m 6,0 C 12,1 C 9,1 km/h (2 Bft)
12.03.2007 18:00 10,8 C 67 % 1024,5 hPa 0,0 l/m 1,0 km/h (0 Bft) N 0,00 h 0 W/m 4,9 C 10,8 C 1,0 km/h (0 Bft)
12.03.2007 19:00 9,0 C 72 % 1024,8 hPa 0,0 l/m 0,0 km/h (0 Bft) N 0,00 h 0 W/m 4,2 C 9,0 C 0,0 km/h (0 Bft)
12.03.2007 20:00 7,8 C 77 % 1025,5 hPa 0,0 l/m 1,3 km/h (1 Bft) W-SW 0,00 h 0 W/m 4,0 C 7,8 C 1,3 km/h (1 Bft)
12.03.2007 21:00 7,3 C 80 % 1025,5 hPa 0,0 l/m 2,5 km/h (1 Bft) SW 0,00 h 0 W/m 4,0 C 7,3 C 2,5 km/h (1 Bft)
12.03.2007 22:00 6,2 C 82 % 1025,5 hPa 0,0 l/m 0,7 km/h (0 Bft) N 0,00 h 0 W/m 3,3 C 6,2 C 0,7 km/h (0 Bft)
12.03.2007 23:00 5,5 C 85 % 1025,5 hPa 0,0 l/m 0,0 km/h (0 Bft) N 0,00 h 0 W/m 3,1 C 5,5 C 0,0 km/h (0 Bft)
13.03.2007 00:00 4,8 C 86 % 1025,5 hPa 0,0 l/m 0,0 km/h (0 Bft) N 0,00 h 0 W/m 2,7 C 4,8 C 0,0 km/h (0 Bft)
13.03.2007 01:00 4,5 C 88 % 1025,3 hPa 0,0 l/m 0,9 km/h (0 Bft) N-NW 0,00 h 0 W/m 2,6 C 4,5 C 0,9 km/h (0 Bft)
13.03.2007 02:00 4,1 C 88 % 1025,0 hPa 0,0 l/m 0,0 km/h (0 Bft) N 0,00 h 0 W/m 2,3 C 4,1 C 0,0 km/h (0 Bft)
13.03.2007 03:00 3,9 C 90 % 1024,8 hPa 0,0 l/m 2,2 km/h (1 Bft) N 0,00 h 0 W/m 2,3 C 3,9 C 2,2 km/h (1 Bft)
13.03.2007 04:00 3,7 C 90 % 1024,5 hPa 0,0 l/m 1,0 km/h (0 Bft) N 0,00 h 0 W/m 2,2 C 3,7 C 1,0 km/h (0 Bft)
13.03.2007 05:00 3,6 C 91 % 1024,5 hPa 0,0 l/m 0,0 km/h (0 Bft) N 0,00 h 0 W/m 2,3 C 3,6 C 0,0 km/h (0 Bft)
13.03.2007 06:00 3,3 C 91 % 1024,5 hPa 21,0 l/m 0,9 km/h (0 Bft) N 0,00 h 0 W/m 2,0 C 3,3 C 0,9 km/h (0 Bft)
13.03.2007 07:00 2,9 C 92 % 1025,0 hPa 0,0 l/m 0,0 km/h (0 Bft) N 0,00 h 0 W/m 1,7 C 2,9 C 0,0 km/h (0 Bft)
13.03.2007 08:00 4,4 C 93 % 1025,5 hPa 0,0 l/m 0,0 km/h (0 Bft) N 0,00 h 0 W/m 3,4 C 4,4 C 0,0 km/h (0 Bft)
13.03.2007 09:00 7,6 C 95 % 1025,5 hPa 0,0 l/m 3,2 km/h (1 Bft) N 0,00 h 0 W/m 6,8 C 7,6 C 3,2 km/h (1 Bft)
13.03.2007 10:00 10,5 C 89 % 1025,5 hPa 0,0 l/m 6,4 km/h (2 Bft) N 0,00 h 0 W/m 8,6 C 9,9 C 6,4 km/h (2 Bft)
13.03.2007 11:00 12,3 C 79 % 1026,3 hPa 0,0 l/m 12,9 km/h (3 Bft) N 0,00 h 0 W/m 8,7 C 8,9 C 12,9 km/h (3 Bft)
13.03.2007 12:00 11,9 C 78 % 1026,5 hPa 0,0 l/m 15,9 km/h (3 Bft) N 0,00 h 0 W/m 8,3 C 7,2 C 15,9 km/h (3 Bft)
13.03.2007 13:00 11,6 C 78 % 1026,5 hPa 0,0 l/m 18,2 km/h (3 Bft) N 0,00 h 0 W/m 8,0 C 6,0 C 18,2 km/h (3 Bft)
13.03.2007 14:00 10,8 C 82 % 1026,5 hPa 0,0 l/m 21,0 km/h (4 Bft) N-NO 0,00 h 0 W/m 7,8 C 3,9 C 21,0 km/h (4 Bft)
13.03.2007 15:00 10,1 C 83 % 1027,0 hPa 0,0 l/m 17,0 km/h (3 Bft) N 0,00 h 0 W/m 7,4 C 4,6 C 17,0 km/h (3 Bft)
13.03.2007 16:00 9,5 C 83 % 1027,5 hPa 0,0 l/m 13,9 km/h (3 Bft) N 0,00 h 0 W/m 6,8 C 5,2 C 13,9 km/h (3 Bft)
13.03.2007 17:00 8,9 C 82 % 1027,5 hPa 0,0 l/m 10,1 km/h (2 Bft) NW 0,00 h 0 W/m 6,0 C 6,3 C 10,1 km/h (2 Bft)
13.03.2007 18:00 8,0 C 85 % 1028,5 hPa 0,0 l/m 11,9 km/h (2 Bft) NW 0,00 h 0 W/m 5,5 C 4,2 C 11,9 km/h (2 Bft)
13.03.2007 19:00 7,3 C 89 % 1028,5 hPa 0,0 l/m 11,4 km/h (2 Bft) NW 0,00 h 0 W/m 5,5 C 3,7 C 11,4 km/h (2 Bft)
13.03.2007 20:00 7,1 C 90 % 1029,3 hPa 0,0 l/m 14,3 km/h (3 Bft) NW 0,00 h 0 W/m 5,5 C 1,9 C 14,3 km/h (3 Bft)
13.03.2007 21:00 7,0 C 90 % 1029,5 hPa 0,0 l/m 12,3 km/h (2 Bft) NW 0,00 h 0 W/m 5,5 C 2,9 C 12,3 km/h (2 Bft)
13.03.2007 22:00 6,9 C 92 % 1029,5 hPa 0,0 l/m 10,4 km/h (2 Bft) W-NW 0,00 h 0 W/m 5,6 C 3,9 C 10,4 km/h (2 Bft)
13.03.2007 23:00 6,9 C 93 % 1030,3 hPa 0,0 l/m 14,4 km/h (3 Bft) W-NW 0,00 h 0 W/m 5,8 C 1,7 C 14,4 km/h (3 Bft)
14.03.2007 00:00 6,6 C 93 % 1030,5 hPa 0,0 l/m 16,8 km/h (3 Bft) NW 0,00 h 0 W/m 5,6 C 0,2 C 16,8 km/h (3 Bft)
14.03.2007 01:00 6,4 C 94 % 1030,5 hPa 0,0 l/m 15,2 km/h (3 Bft) W-NW 0,00 h 0 W/m 5,5 C 0,8 C 15,2 km/h (3 Bft)
14.03.2007 02:00 6,0 C 95 % 1030,5 hPa 0,0 l/m 11,0 km/h (2 Bft) W 0,00 h 0 W/m 5,3 C 2,6 C 11,0 km/h (2 Bft)
14.03.2007 03:00 5,9 C 96 % 1030,8 hPa 0,0 l/m 11,0 km/h (2 Bft) W 0,00 h 0 W/m 5,4 C 2,5 C 11,0 km/h (2 Bft)
14.03.2007 04:00 5,9 C 97 % 1031,5 hPa 0,0 l/m 14,6 km/h (3 Bft) W 0,00 h 0 W/m 5,5 C 0,4 C 14,6 km/h (3 Bft)
14.03.2007 05:00 6,1 C 97 % 1031,3 hPa 0,0 l/m 17,2 km/h (3 Bft) W 0,00 h 0 W/m 5,6 C -0,5 C 17,2 km/h (3 Bft)
14.03.2007 06:00 6,3 C 97 % 1031,5 hPa 0,0 l/m 15,8 km/h (3 Bft) W 0,00 h 0 W/m 5,9 C 0,4 C 15,8 km/h (3 Bft)
14.03.2007 07:00 6,6 C 97 % 1031,5 hPa 0,0 l/m 15,0 km/h (3 Bft) W-NW 0,00 h 0 W/m 6,2 C 1,1 C 15,0 km/h (3 Bft)
14.03.2007 08:00 7,2 C 98 % 1032,5 hPa 0,0 l/m 14,6 km/h (3 Bft) W 0,00 h 0 W/m 6,8 C 2,0 C 14,6 km/h (3 Bft)
14.03.2007 09:00 9,8 C 89 % 1032,5 hPa 0,0 l/m 19,2 km/h (3 Bft) W 0,00 h 0 W/m 8,0 C 3,3 C 19,2 km/h (3 Bft)
14.03.2007 10:00 10,3 C 84 % 1033,5 hPa 0,0 l/m 21,9 km/h (4 Bft) W-NW 0,00 h 0 W/m 7,8 C 3,1 C 21,9 km/h (4 Bft)
14.03.2007 11:00 10,9 C 82 % 1033,5 hPa 0,0 l/m 25,0 km/h (4 Bft) W-NW 0,00 h 0 W/m 7,9 C 3,1 C 25,0 km/h (4 Bft)
14.03.2007 12:00 11,9 C 78 % 1033,5 hPa 0,0 l/m 27,1 km/h (5 Bft) W-NW 0,00 h 0 W/m 8,1 C 3,9 C 27,1 km/h (5 Bft)
14.03.2007 13:00 12,1 C 76 % 1033,5 hPa 0,0 l/m 23,9 km/h (4 Bft) W-NW 0,00 h 0 W/m 7,9 C 4,9 C 23,9 km/h (4 Bft)
14.03.2007 14:00 11,9 C 74 % 1033,5 hPa 0,0 l/m 28,4 km/h (5 Bft) W-NW 0,00 h 0 W/m 7,4 C 3,7 C 28,4 km/h (5 Bft)
14.03.2007 15:00 11,4 C 76 % 1032,8 hPa 0,0 l/m 26,6 km/h (4 Bft) NW 0,00 h 0 W/m 7,3 C 3,4 C 26,6 km/h (4 Bft)
14.03.2007 16:00 10,4 C 80 % 1032,5 hPa 0,0 l/m 26,0 km/h (4 Bft) NW 0,00 h 0 W/m 7,1 C 2,1 C 26,0 km/h (4 Bft)
14.03.2007 17:00 9,3 C 85 % 1032,5 hPa 0,0 l/m 20,9 km/h (4 Bft) NW 0,00 h 0 W/m 7,0 C 2,1 C 20,9 km/h (4 Bft)
14.03.2007 18:00 8,0 C 90 % 1032,5 hPa 0,0 l/m 17,9 km/h (3 Bft) W-NW 0,00 h 0 W/m 6,5 C 1,6 C 17,9 km/h (3 Bft)
14.03.2007 19:00 7,5 C 94 % 1032,5 hPa 0,0 l/m 16,9 km/h (3 Bft) W-NW 0,00 h 0 W/m 6,5 C 1,3 C 16,9 km/h (3 Bft)
14.03.2007 20:00 7,3 C 95 % 1032,5 hPa 0,0 l/m 17,0 km/h (3 Bft) W-NW 0,00 h 0 W/m 6,6 C 1,0 C 17,0 km/h (3 Bft)
14.03.2007 21:00 7,1 C 95 % 1032,5 hPa 0,0 l/m 12,3 km/h (2 Bft) W-NW 0,00 h 0 W/m 6,4 C 3,1 C 12,3 km/h (2 Bft)
14.03.2007 22:00 6,9 C 94 % 1032,0 hPa 0,0 l/m 11,3 km/h (2 Bft) W 0,00 h 0 W/m 6,0 C 3,4 C 11,3 km/h (2 Bft)
14.03.2007 23:00 6,6 C 95 % 1031,5 hPa 0,0 l/m 10,6 km/h (2 Bft) W 0,00 h 0 W/m 5,9 C 3,5 C 10,6 km/h (2 Bft)
15.03.2007 00:00 6,4 C 96 % 1031,5 hPa 0,0 l/m 11,2 km/h (2 Bft) W 0,00 h 0 W/m 5,8 C 2,9 C 11,2 km/h (2 Bft)
15.03.2007 01:00 6,1 C 97 % 1031,3 hPa 0,0 l/m 11,6 km/h (2 Bft) W 0,00 h 0 W/m 5,6 C 2,2 C 11,6 km/h (2 Bft)
15.03.2007 02:00 5,6 C 98 % 1030,5 hPa 0,0 l/m 11,9 km/h (2 Bft) W 0,00 h 0 W/m 5,2 C 1,5 C 11,9 km/h (2 Bft)
15.03.2007 03:00 5,8 C 99 % 1030,5 hPa 0,0 l/m 14,1 km/h (3 Bft) W 0,00 h 0 W/m 5,6 C 0,8 C 14,1 km/h (3 Bft)
15.03.2007 04:00 6,1 C 99 % 1029,5 hPa 0,0 l/m 15,5 km/h (3 Bft) W 0,00 h 0 W/m 5,9 C 0,1 C 15,5 km/h (3 Bft)
15.03.2007 05:00 5,9 C 99 % 1029,5 hPa 0,0 l/m 15,9 km/h (3 Bft) W 0,00 h 0 W/m 5,7 C -0,3 C 15,9 km/h (3 Bft)
15.03.2007 06:00 5,8 C 99 % 1029,5 hPa 0,0 l/m 13,7 km/h (3 Bft) W 0,00 h 0 W/m 5,6 C 0,7 C 13,7 km/h (3 Bft)
15.03.2007 07:00 5,8 C 99 % 1029,5 hPa 0,0 l/m 16,4 km/h (3 Bft) W 0,00 h 0 W/m 5,7 C -0,5 C 16,4 km/h (3 Bft)
15.03.2007 08:00 5,8 C 99 % 1029,5 hPa 0,3 l/m 17,0 km/h (3 Bft) W-SW 0,00 h 0 W/m 5,7 C -0,8 C 17,0 km/h (3 Bft)
15.03.2007 09:00 7,6 C 95 % 1029,5 hPa 0,0 l/m 18,8 km/h (3 Bft) W-SW 0,00 h 0 W/m 6,8 C 0,6 C 18,8 km/h (3 Bft)
15.03.2007 10:00 8,6 C 86 % 1028,5 hPa 0,0 l/m 17,8 km/h (3 Bft) W-SW 0,00 h 0 W/m 6,4 C 2,4 C 17,8 km/h (3 Bft)
15.03.2007 11:00 9,4 C 81 % 1028,5 hPa 0,0 l/m 20,3 km/h (4 Bft) W-SW 0,00 h 0 W/m 6,3 C 2,4 C 20,3 km/h (4 Bft)
15.03.2007 12:00 10,9 C 73 % 1027,8 hPa 0,0 l/m 25,3 km/h (4 Bft) W 0,00 h 0 W/m 6,2 C 3,2 C 25,3 km/h (4 Bft)
15.03.2007 13:00 12,1 C 67 % 1027,3 hPa 0,0 l/m 27,4 km/h (5 Bft) W 0,00 h 0 W/m 6,2 C 4,2 C 27,4 km/h (5 Bft)
15.03.2007 14:00 12,6 C 66 % 1026,5 hPa 0,0 l/m 23,6 km/h (4 Bft) W 0,00 h 0 W/m 6,4 C 5,8 C 23,6 km/h (4 Bft)
15.03.2007 15:00 12,8 C 62 % 1025,8 hPa 0,0 l/m 21,4 km/h (4 Bft) W 0,00 h 0 W/m 5,7 C 6,5 C 21,4 km/h (4 Bft)
15.03.2007 16:00 12,4 C 62 % 1025,3 hPa 0,0 l/m 18,4 km/h (3 Bft) W-NW 0,00 h 0 W/m 5,4 C 7,0 C 18,4 km/h (3 Bft)
15.03.2007 17:00 11,6 C 68 % 1024,5 hPa 0,0 l/m 15,0 km/h (3 Bft) W 0,00 h 0 W/m 5,8 C 7,1 C 15,0 km/h (3 Bft)
15.03.2007 18:00 10,2 C 76 % 1024,3 hPa 0,0 l/m 9,6 km/h (2 Bft) W 0,00 h 0 W/m 6,1 C 8,2 C 9,6 km/h (2 Bft)
15.03.2007 19:00 7,9 C 81 % 1023,5 hPa 0,0 l/m 4,5 km/h (1 Bft) W-SW 0,00 h 0 W/m 4,9 C 7,9 C 4,5 km/h (1 Bft)
15.03.2007 20:00 7,2 C 84 % 1023,5 hPa 0,0 l/m 7,1 km/h (2 Bft) W-SW 0,00 h 0 W/m 4,7 C 5,9 C 7,1 km/h (2 Bft)
15.03.2007 21:00 7,6 C 86 % 1023,5 hPa 0,0 l/m 9,1 km/h (2 Bft) W 0,00 h 0 W/m 5,4 C 5,6 C 9,1 km/h (2 Bft)
15.03.2007 22:00 8,4 C 83 % 1023,5 hPa 0,0 l/m 19,1 km/h (3 Bft) W 0,00 h 0 W/m 5,5 C 1,5 C 19,1 km/h (3 Bft)
15.03.2007 23:00 8,6 C 81 % 1023,5 hPa 0,0 l/m 20,2 km/h (4 Bft) W 0,00 h 0 W/m 5,6 C 1,5 C 20,2 km/h (4 Bft)
16.03.2007 00:00 8,1 C 85 % 1022,5 hPa 0,0 l/m 19,3 km/h (3 Bft) W 0,00 h 0 W/m 5,7 C 1,1 C 19,3 km/h (3 Bft)
16.03.2007 01:00 8,2 C 87 % 1022,5 hPa 0,0 l/m 22,8 km/h (4 Bft) W 0,00 h 0 W/m 6,1 C 0,0 C 22,8 km/h (4 Bft)
16.03.2007 02:00 8,1 C 89 % 1022,3 hPa 0,0 l/m 23,1 km/h (4 Bft) W 0,00 h 0 W/m 6,3 C -0,2 C 23,1 km/h (4 Bft)
16.03.2007 03:00 8,0 C 90 % 1021,5 hPa 0,0 l/m 22,7 km/h (4 Bft) W 0,00 h 0 W/m 6,4 C -0,2 C 22,7 km/h (4 Bft)
16.03.2007 04:00 8,0 C 91 % 1021,5 hPa 0,0 l/m 21,0 km/h (4 Bft) W 0,00 h 0 W/m 6,7 C 0,4 C 21,0 km/h (4 Bft)
16.03.2007 05:00 8,1 C 94 % 1021,5 hPa 0,0 l/m 20,8 km/h (4 Bft) W-NW 0,00 h 0 W/m 7,1 C 0,5 C 20,8 km/h (4 Bft)
16.03.2007 06:00 8,1 C 97 % 1021,5 hPa 0,3 l/m 18,6 km/h (3 Bft) W-NW 0,00 h 0 W/m 7,6 C 1,3 C 18,6 km/h (3 Bft)
16.03.2007 07:00 8,1 C 97 % 1021,5 hPa 0,0 l/m 19,8 km/h (3 Bft) NW 0,00 h 0 W/m 7,7 C 0,9 C 19,8 km/h (3 Bft)
16.03.2007 08:00 8,4 C 96 % 1021,8 hPa 0,0 l/m 19,4 km/h (3 Bft) NW 0,00 h 0 W/m 7,8 C 1,5 C 19,4 km/h (3 Bft)
16.03.2007 09:00 9,3 C 90 % 1022,5 hPa 0,0 l/m 14,3 km/h (3 Bft) N-NW 0,00 h 0 W/m 7,7 C 4,6 C 14,3 km/h (3 Bft)
16.03.2007 10:00 9,4 C 87 % 1022,5 hPa 0,0 l/m 15,5 km/h (3 Bft) NW 0,00 h 0 W/m 7,3 C 4,3 C 15,5 km/h (3 Bft)
16.03.2007 11:00 9,3 C 83 % 1022,5 hPa 0,0 l/m 18,6 km/h (3 Bft) NW 0,00 h 0 W/m 6,6 C 2,9 C 18,6 km/h (3 Bft)
16.03.2007 12:00 10,6 C 75 % 1022,5 hPa 0,0 l/m 20,8 km/h (4 Bft) NW 0,00 h 0 W/m 6,3 C 3,9 C 20,8 km/h (4 Bft)
16.03.2007 13:00 11,0 C 71 % 1022,3 hPa 0,0 l/m 25,1 km/h (4 Bft) W-NW 0,00 h 0 W/m 6,0 C 3,2 C 25,1 km/h (4 Bft)
16.03.2007 14:00 10,6 C 72 % 1021,5 hPa 0,0 l/m 27,9 km/h (5 Bft) W-NW 0,00 h 0 W/m 5,6 C 1,9 C 27,9 km/h (5 Bft)
16.03.2007 15:00 10,2 C 70 % 1020,8 hPa 0,0 l/m 29,0 km/h (5 Bft) W-NW 0,00 h 0 W/m 5,0 C 1,1 C 29,0 km/h (5 Bft)
16.03.2007 16:00 9,4 C 69 % 1020,0 hPa 0,0 l/m 28,1 km/h (5 Bft) W-NW 0,00 h 0 W/m 4,0 C 0,2 C 28,1 km/h (5 Bft)
16.03.2007 17:00 8,7 C 69 % 1018,8 hPa 0,0 l/m 27,3 km/h (5 Bft) W-NW 0,00 h 0 W/m 3,3 C -0,5 C 27,3 km/h (5 Bft)
16.03.2007 18:00 8,0 C 78 % 1018,3 hPa 0,0 l/m 30,9 km/h (5 Bft) W-NW 0,00 h 0 W/m 4,4 C -2,2 C 30,9 km/h (5 Bft)
16.03.2007 19:00 7,6 C 82 % 1017,5 hPa 0,0 l/m 34,2 km/h (5 Bft) W-NW 0,00 h 0 W/m 4,7 C -3,6 C 34,2 km/h (5 Bft)
16.03.2007 20:00 7,7 C 74 % 1016,8 hPa 0,0 l/m 38,5 km/h (6 Bft) W-NW 0,00 h 0 W/m 3,4 C -4,3 C 38,5 km/h (6 Bft)
16.03.2007 21:00 7,4 C 74 % 1015,5 hPa 0,0 l/m 40,2 km/h (6 Bft) W 0,00 h 0 W/m 3,0 C -4,9 C 40,2 km/h (6 Bft)
16.03.2007 22:00 7,3 C 71 % 1014,5 hPa 0,0 l/m 43,3 km/h (6 Bft) W 0,00 h 0 W/m 2,4 C -5,7 C 43,3 km/h (6 Bft)
16.03.2007 23:00 7,4 C 75 % 1013,5 hPa 0,0 l/m 47,4 km/h (6 Bft) W 0,00 h 0 W/m 3,3 C -6,1 C 47,4 km/h (6 Bft)
17.03.2007 00:00 7,2 C 87 % 1012,5 hPa 0,3 l/m 42,7 km/h (6 Bft) W 0,00 h 0 W/m 5,2 C -5,7 C 42,7 km/h (6 Bft)
17.03.2007 01:00 7,2 C 93 % 1011,5 hPa 0,3 l/m 41,8 km/h (6 Bft) W 0,00 h 0 W/m 6,1 C -5,6 C 41,8 km/h (6 Bft)
17.03.2007 02:00 7,7 C 94 % 1010,8 hPa 0,0 l/m 40,8 km/h (6 Bft) W 0,00 h 0 W/m 6,8 C -4,6 C 40,8 km/h (6 Bft)
17.03.2007 03:00 7,8 C 94 % 1009,8 hPa 0,9 l/m 44,5 km/h (6 Bft) W-NW 0,00 h 0 W/m 6,9 C -5,0 C 44,5 km/h (6 Bft)
17.03.2007 04:00 6,9 C 95 % 1009,8 hPa 1,2 l/m 32,3 km/h (5 Bft) N-NW 0,00 h 0 W/m 6,1 C -4,1 C 32,3 km/h (5 Bft)
17.03.2007 05:00 6,3 C 95 % 1009,8 hPa 1,2 l/m 24,5 km/h (4 Bft) NW 0,00 h 0 W/m 5,4 C -3,0 C 24,5 km/h (4 Bft)
17.03.2007 06:00 6,5 C 94 % 1009,5 hPa 0,0 l/m 31,5 km/h (5 Bft) NW 0,00 h 0 W/m 5,5 C -4,7 C 31,5 km/h (5 Bft)
17.03.2007 07:00 7,1 C 94 % 1009,5 hPa 0,0 l/m 31,4 km/h (5 Bft) NW 0,00 h 0 W/m 6,1 C -3,8 C 31,4 km/h (5 Bft)
17.03.2007 08:00 8,2 C 93 % 1010,5 hPa 0,0 l/m 34,2 km/h (5 Bft) NW 0,00 h 0 W/m 7,1 C -2,7 C 34,2 km/h (5 Bft)
17.03.2007 09:00 9,3 C 87 % 1010,5 hPa 0,0 l/m 38,6 km/h (6 Bft) NW 0,00 h 0 W/m 7,2 C -1,9 C 38,6 km/h (6 Bft)
17.03.2007 10:00 10,0 C 82 % 1011,0 hPa 0,0 l/m 37,5 km/h (5 Bft) NW 0,00 h 0 W/m 7,0 C -0,7 C 37,5 km/h (5 Bft)
17.03.2007 11:00 10,8 C 79 % 1011,5 hPa 0,0 l/m 36,6 km/h (5 Bft) NW 0,00 h 0 W/m 7,3 C 0,6 C 36,6 km/h (5 Bft)
17.03.2007 12:00 11,1 C 78 % 1011,8 hPa 0,0 l/m 34,8 km/h (5 Bft) W-NW 0,00 h 0 W/m 7,4 C 1,4 C 34,8 km/h (5 Bft)
17.03.2007 13:00 11,1 C 78 % 1012,3 hPa 0,0 l/m 34,9 km/h (5 Bft) NW 0,00 h 0 W/m 7,4 C 1,3 C 34,9 km/h (5 Bft)
17.03.2007 14:00 11,1 C 78 % 1012,3 hPa 0,0 l/m 37,5 km/h (5 Bft) W-NW 0,00 h 0 W/m 7,5 C 1,0 C 37,5 km/h (5 Bft)
17.03.2007 15:00 10,5 C 80 % 1012,3 hPa 0,0 l/m 35,7 km/h (5 Bft) W-NW 0,00 h 0 W/m 7,2 C 0,4 C 35,7 km/h (5 Bft)
17.03.2007 16:00 9,8 C 84 % 1011,5 hPa 0,0 l/m 32,9 km/h (5 Bft) W-NW 0,00 h 0 W/m 7,3 C -0,2 C 32,9 km/h (5 Bft)
17.03.2007 17:00 9,4 C 88 % 1010,8 hPa 0,0 l/m 34,3 km/h (5 Bft) W-NW 0,00 h 0 W/m 7,4 C -1,1 C 34,3 km/h (5 Bft)
17.03.2007 18:00 9,1 C 90 % 1010,3 hPa 0,0 l/m 33,3 km/h (5 Bft) W-NW 0,00 h 0 W/m 7,5 C -1,3 C 33,3 km/h (5 Bft)
17.03.2007 19:00 9,2 C 94 % 1009,5 hPa 0,0 l/m 31,7 km/h (5 Bft) W-NW 0,00 h 0 W/m 8,2 C -0,8 C 31,7 km/h (5 Bft)
17.03.2007 20:00 9,1 C 95 % 1008,5 hPa 0,0 l/m 36,5 km/h (5 Bft) W-NW 0,00 h 0 W/m 8,4 C -1,8 C 36,5 km/h (5 Bft)
17.03.2007 21:00 9,1 C 94 % 1008,3 hPa 0,3 l/m 37,2 km/h (5 Bft) W-NW 0,00 h 0 W/m 8,1 C -2,0 C 37,2 km/h (5 Bft)
17.03.2007 22:00 9,3 C 90 % 1006,8 hPa 0,0 l/m 34,6 km/h (5 Bft) W 0,00 h 0 W/m 7,7 C -1,3 C 34,6 km/h (5 Bft)
17.03.2007 23:00 9,3 C 92 % 1004,8 hPa 0,0 l/m 41,8 km/h (6 Bft) W-SW 0,00 h 0 W/m 8,1 C -2,3 C 41,8 km/h (6 Bft)
18.03.2007 00:00 9,6 C 92 % 1003,0 hPa 0,0 l/m 44,6 km/h (6 Bft) W 0,00 h 0 W/m 8,3 C -2,4 C 44,6 km/h (6 Bft)
18.03.2007 01:00 9,5 C 94 % 1001,3 hPa 0,3 l/m 48,9 km/h (7 Bft) W 0,00 h 0 W/m 8,6 C -2,9 C 48,9 km/h (7 Bft)
18.03.2007 02:00 9,5 C 93 % 999,5 hPa 0,3 l/m 50,0 km/h (7 Bft) W 0,00 h 0 W/m 8,4 C -3,1 C 50,0 km/h (7 Bft)
18.03.2007 03:00 9,2 C 94 % 996,8 hPa 0,0 l/m 52,8 km/h (7 Bft) W 0,00 h 0 W/m 8,2 C -3,8 C 52,8 km/h (7 Bft)
18.03.2007 04:00 8,6 C 96 % 995,0 hPa 0,6 l/m 52,9 km/h (7 Bft) W 0,00 h 0 W/m 8,0 C -4,7 C 52,9 km/h (7 Bft)
18.03.2007 05:00 8,5 C 98 % 993,0 hPa 0,3 l/m 51,3 km/h (7 Bft) W 0,00 h 0 W/m 8,2 C -4,7 C 51,3 km/h (7 Bft)
18.03.2007 06:00 8,5 C 98 % 992,0 hPa 1,8 l/m 53,1 km/h (7 Bft) W 0,00 h 0 W/m 8,2 C -4,9 C 53,1 km/h (7 Bft)
18.03.2007 07:00 8,9 C 97 % 990,3 hPa 0,6 l/m 51,3 km/h (7 Bft) W 0,00 h 0 W/m 8,3 C -4,1 C 51,3 km/h (7 Bft)
18.03.2007 08:00 9,3 C 95 % 989,0 hPa 1,5 l/m 48,0 km/h (6 Bft) W 0,00 h 0 W/m 8,5 C -3,2 C 48,0 km/h (6 Bft)
18.03.2007 09:00 7,7 C 86 % 989,5 hPa 0,9 l/m 44,6 km/h (6 Bft) W 0,00 h 0 W/m 5,4 C -5,2 C 44,6 km/h (6 Bft)
18.03.2007 10:00 7,9 C 82 % 989,5 hPa 0,3 l/m 44,6 km/h (6 Bft) W 0,00 h 0 W/m 5,0 C -4,9 C 44,6 km/h (6 Bft)
18.03.2007 11:00 8,8 C 71 % 989,0 hPa 0,0 l/m 44,6 km/h (6 Bft) W 0,00 h 0 W/m 3,7 C -3,5 C 44,6 km/h (6 Bft)
18.03.2007 12:00 9,2 C 64 % 988,9 hPa 0,0 l/m 44,6 km/h (6 Bft) W 0,00 h 0 W/m 2,8 C -2,9 C 44,6 km/h (6 Bft)
18.03.2007 13:00 8,6 C 65 % 988,5 hPa 0,0 l/m 44,6 km/h (6 Bft) W 0,00 h 0 W/m 2,3 C -3,9 C 44,6 km/h (6 Bft)
18.03.2007 14:00 8,4 C 63 % 988,0 hPa 0,0 l/m 44,6 km/h (6 Bft) W 0,00 h 0 W/m 1,9 C -4,1 C 44,6 km/h (6 Bft)
18.03.2007 15:00 8,2 C 63 % 987,5 hPa 0,3 l/m 44,6 km/h (6 Bft) W 0,00 h 0 W/m 1,5 C -4,5 C 44,6 km/h (6 Bft)
18.03.2007 16:00 7,4 C 64 % 986,8 hPa 0,0 l/m 44,6 km/h (6 Bft) W 0,00 h 0 W/m 1,0 C -5,6 C 44,6 km/h (6 Bft)
18.03.2007 17:00 6,9 C 67 % 986,3 hPa 0,0 l/m 44,6 km/h (6 Bft) W 0,00 h 0 W/m 1,2 C -6,5 C 44,6 km/h (6 Bft)
18.03.2007 18:00 6,5 C 68 % 985,5 hPa 0,3 l/m 55,6 km/h (7 Bft) W-NW 0,00 h 0 W/m 1,0 C -8,2 C 55,6 km/h (7 Bft)
18.03.2007 19:00 6,1 C 70 % 985,5 hPa 0,0 l/m 54,2 km/h (7 Bft) W-NW 0,00 h 0 W/m 1,1 C -8,7 C 54,2 km/h (7 Bft)
18.03.2007 20:00 5,5 C 77 % 985,3 hPa 0,0 l/m 52,0 km/h (7 Bft) NW 0,00 h 0 W/m 1,7 C -9,4 C 52,0 km/h (7 Bft)
18.03.2007 21:00 5,1 C 80 % 984,5 hPa 0,0 l/m 47,4 km/h (6 Bft) W 0,00 h 0 W/m 2,0 C -9,5 C 47,4 km/h (6 Bft)
18.03.2007 22:00 5,5 C 79 % 984,5 hPa 0,0 l/m 48,8 km/h (7 Bft) W-NW 0,00 h 0 W/m 2,0 C -9,1 C 48,8 km/h (7 Bft)
18.03.2007 23:00 4,8 C 84 % 984,5 hPa 0,0 l/m 41,3 km/h (6 Bft) NW 0,00 h 0 W/m 2,2 C -8,9 C 41,3 km/h (6 Bft)
Min-Datum _ 13.03.07 12.03.07 18.03.07 - 12.03.07 - - - 18.03.07 18.03.07 12.03.07
_ Min-Zeit 07:00 12:24 20:15 - 18:24 - - - 16:30 20:45 18:24
Minimum _ 2,8 C 52 % 984,5 hPa - 0,0 km/h (0 Bft) - - - 0,3 C -10,7 C 0,0 km/h (0 Bft)
Max-Datum _ 12.03.07 15.03.07 14.03.07 13.03.07 18.03.07 - 12.03.07 12.03.07 13.03.07 12.03.07 18.03.07
_ Max-Zeit 12:54 03:39 10:00 06:00 18:00 - 00:09 00:09 11:15 17:39 18:00
Maximum _ 15,9 C 99 % 1033,5 hPa 21,0 l/m 60,0 km/h
W-NW (7 Bft)
- 0,00 h 0 W/m 9,0 C 12,8 C 60,0 km/h
W-NW (7 Bft)
Durchschnitt _ 8,4 C 84 % 1019,0 hPa #33,0 l/m 23,6 km/h (4 Bft) W #0 min. 0 W/m 5,7 C 1,3 C 23,6 km/h (4 Bft)
copyright by Holger Just